Time;durP1;ratioP1;P1;durP2;ratioP2;P2;SDS_P1;SDS_P2;PMS_P1;PMS_P2;Temp;Humidity;BMP_temperature;BMP_pressure;BME280_temperature;BME280_humidity;BME280_pressure;Samples;Min_cycle;Max_cycle;Signal;HPM_P1;HPM_P2
2022/04/23 00:01:40;;;;;;;;;;;13.30;99.90;;;;;;5055357;28;20509;-92
2022/04/23 00:04:06;;;;;;;;;;;13.30;99.90;;;;;;5054459;28;20006;-92
2022/04/23 00:06:31;;;;;;;;;;;13.20;99.90;;;;;;5054941;28;19960;-90
2022/04/23 00:08:57;;;;;;;;;;;13.20;99.90;;;;;;5054445;28;19912;-92
2022/04/23 00:11:22;;;;;;;;;;;13.20;99.90;;;;;;5054948;28;19912;-92
2022/04/23 00:13:48;;;;;;;;;;;13.10;99.90;;;;;;5054780;28;19957;-93
2022/04/23 00:16:15;;;;;;;;;;;13.10;99.90;;;;;;5088023;28;19920;-92
2022/04/23 00:18:43;;;;;;;;;;;13.10;99.90;;;;;;5044505;28;21626;-91
2022/04/23 00:21:09;;;;;;;;;;;13.10;99.90;;;;;;5054689;28;19909;-93
2022/04/23 00:23:34;;;;;;;;;;;13.00;99.90;;;;;;5054304;28;19915;-92
2022/04/23 00:26:01;;;;;;;;;;;13.00;99.90;;;;;;5054554;28;20015;-93
2022/04/23 00:28:26;;;;;;;;;;;12.90;99.90;;;;;;5054605;28;19909;-92
2022/04/23 00:30:52;;;;;;;;;;;12.90;99.90;;;;;;5054539;28;19916;-92
2022/04/23 00:33:21;;;;;;;;;;;12.90;99.90;;;;;;5054188;28;20261;-92
2022/04/23 00:35:48;;;;;;;;;;;12.90;99.90;;;;;;5054464;28;19920;-92
2022/04/23 00:38:16;;;;;;;;;;;12.90;99.90;;;;;;5054300;28;19931;-91
2022/04/23 00:40:43;;;;;;;;;;;12.90;99.90;;;;;;5054669;28;19970;-93
2022/04/23 00:43:23;;;;;;;;;;;12.90;99.90;;;;;;5054148;28;20380;-92
2022/04/23 00:45:49;;;;;;;;;;;12.90;99.90;;;;;;5054515;28;19954;-92
2022/04/23 00:48:14;;;;;;;;;;;12.90;99.90;;;;;;5054466;28;19938;-92
2022/04/23 00:50:40;;;;;;;;;;;12.90;99.90;;;;;;5054715;28;19909;-93
2022/04/23 00:53:06;;;;;;;;;;;12.90;99.90;;;;;;5054669;28;20467;-92
2022/04/23 00:55:32;;;;;;;;;;;12.90;99.90;;;;;;5054308;28;19916;-92
2022/04/23 00:57:58;;;;;;;;;;;12.90;99.90;;;;;;5057110;28;19909;-92
2022/04/23 01:00:25;;;;;;;;;;;12.90;99.90;;;;;;5057942;28;19909;-92
2022/04/23 01:02:53;;;;;;;;;;;13.00;99.90;;;;;;5057486;28;19908;-93
2022/04/23 01:05:21;;;;;;;;;;;13.00;99.90;;;;;;5057985;28;20721;-92
2022/04/23 01:07:46;;;;;;;;;;;13.00;99.90;;;;;;5057371;28;19919;-92
2022/04/23 01:10:12;;;;;;;;;;;13.00;99.90;;;;;;5075656;28;19909;-92
2022/04/23 01:12:38;;;;;;;;;;;13.10;99.90;;;;;;5075703;28;20482;-93
2022/04/23 01:15:10;;;;;;;;;;;13.10;99.90;;;;;;5075424;28;19917;-92
2022/04/23 01:17:36;;;;;;;;;;;13.10;99.90;;;;;;5057598;28;19908;-93
2022/04/23 01:20:15;;;;;;;;;;;13.10;99.90;;;;;;5075144;28;20369;-92
2022/04/23 01:22:41;;;;;;;;;;;13.20;99.90;;;;;;5057485;28;19912;-92
2022/04/23 01:25:12;;;;;;;;;;;13.20;99.90;;;;;;5057067;28;19921;-92
2022/04/23 01:27:38;;;;;;;;;;;13.20;99.90;;;;;;5057123;28;19912;-92
2022/04/23 01:30:05;;;;;;;;;;;13.20;99.90;;;;;;5056581;28;19908;-92
2022/04/23 01:32:30;;;;;;;;;;;13.30;99.90;;;;;;5057068;28;19912;-92
2022/04/23 01:34:56;;;;;;;;;;;13.30;99.90;;;;;;5074504;28;19923;-92
2022/04/23 01:37:21;;;;;;;;;;;13.30;99.90;;;;;;5057060;28;19962;-92
2022/04/23 01:39:48;;;;;;;;;;;13.20;99.90;;;;;;5074732;28;19958;-91
2022/04/23 01:42:17;;;;;;;;;;;13.20;99.90;;;;;;5056981;28;20124;-92
2022/04/23 01:44:51;;;;;;;;;;;13.30;99.90;;;;;;5056727;28;20457;-92
2022/04/23 01:47:17;;;;;;;;;;;13.30;99.90;;;;;;5056902;28;19920;-92
2022/04/23 01:49:42;;;;;;;;;;;13.30;99.90;;;;;;5056606;28;19909;-92
2022/04/23 01:52:08;;;;;;;;;;;13.30;99.90;;;;;;5056651;28;19908;-91
2022/04/23 01:54:34;;;;;;;;;;;13.40;99.90;;;;;;5056923;28;19916;-93
2022/04/23 01:57:00;;;;;;;;;;;13.40;99.90;;;;;;5057060;28;19991;-93
2022/04/23 01:59:26;;;;;;;;;;;13.40;99.90;;;;;;5074759;28;20357;-92
2022/04/23 02:01:52;;;;;;;;;;;13.40;99.90;;;;;;5056778;28;19908;-92
2022/04/23 02:04:17;;;;;;;;;;;13.50;99.90;;;;;;5056472;28;19913;-92
2022/04/23 02:06:43;;;;;;;;;;;13.30;99.90;;;;;;5058069;28;19908;-92
2022/04/23 02:09:09;;;;;;;;;;;13.40;99.90;;;;;;5077788;28;19938;-93
2022/04/23 02:11:34;;;;;;;;;;;13.40;99.90;;;;;;5057318;28;19995;-92
2022/04/23 02:14:02;;;;;;;;;;;13.40;99.90;;;;;;5056399;28;19912;-92
2022/04/23 02:16:28;;;;;;;;;;;13.40;99.90;;;;;;5074591;28;19908;-91
2022/04/23 02:18:54;;;;;;;;;;;13.30;99.90;;;;;;5073807;28;20007;-92
2022/04/23 02:21:19;;;;;;;;;;;13.40;99.90;;;;;;5056369;28;19951;-92
2022/04/23 02:23:45;;;;;;;;;;;13.40;99.90;;;;;;5056016;28;20009;-92
2022/04/23 02:26:11;;;;;;;;;;;13.30;99.90;;;;;;5055950;28;20520;-91
2022/04/23 02:28:39;;;;;;;;;;;13.30;99.90;;;;;;5055895;28;19908;-92
2022/04/23 02:31:05;;;;;;;;;;;13.30;99.90;;;;;;5055922;28;19954;-92
2022/04/23 02:33:31;;;;;;;;;;;13.30;99.90;;;;;;5055931;28;20324;-91
2022/04/23 02:35:57;;;;;;;;;;;13.30;99.90;;;;;;5073827;28;19920;-91
2022/04/23 02:38:22;;;;;;;;;;;13.30;99.90;;;;;;5056214;28;19908;-93
2022/04/23 02:40:48;;;;;;;;;;;13.20;99.90;;;;;;5056069;28;19948;-91
2022/04/23 02:43:14;;;;;;;;;;;13.20;99.90;;;;;;5055581;28;19923;-91
2022/04/23 02:45:39;;;;;;;;;;;13.20;99.90;;;;;;5055751;28;19938;-92
2022/04/23 02:48:05;;;;;;;;;;;13.20;99.90;;;;;;5055400;28;19966;-91
2022/04/23 02:50:37;;;;;;;;;;;13.20;99.90;;;;;;5055976;28;19912;-92
2022/04/23 02:53:03;;;;;;;;;;;13.20;99.90;;;;;;5055636;28;19962;-92
2022/04/23 02:55:31;;;;;;;;;;;13.10;99.90;;;;;;5055883;28;20304;-92
2022/04/23 02:58:04;;;;;;;;;;;13.10;99.90;;;;;;5055829;28;19991;-92
2022/04/23 03:00:29;;;;;;;;;;;13.10;99.90;;;;;;5055929;28;19916;-92
2022/04/23 03:02:55;;;;;;;;;;;13.20;99.90;;;;;;5055057;28;19909;-91
2022/04/23 03:05:21;;;;;;;;;;;13.10;99.90;;;;;;5055640;28;19909;-92
2022/04/23 03:07:48;;;;;;;;;;;13.10;99.90;;;;;;5055434;28;19919;-92
2022/04/23 03:10:14;;;;;;;;;;;13.10;99.90;;;;;;5055486;28;19909;-92
2022/04/23 03:12:40;;;;;;;;;;;13.10;99.90;;;;;;5055259;28;19913;-91
2022/04/23 03:15:07;;;;;;;;;;;13.10;99.90;;;;;;5073439;28;20393;-91
2022/04/23 03:17:32;;;;;;;;;;;13.10;99.90;;;;;;5072862;28;19909;-92
2022/04/23 03:19:58;;;;;;;;;;;13.10;99.90;;;;;;5054705;28;19909;-92
2022/04/23 03:22:24;;;;;;;;;;;13.10;99.90;;;;;;5055324;28;19962;-92
2022/04/23 03:24:49;;;;;;;;;;;13.10;99.90;;;;;;5051671;28;19978;-92
2022/04/23 03:27:15;;;;;;;;;;;13.10;99.90;;;;;;5052904;28;20388;-91
2022/04/23 03:29:41;;;;;;;;;;;13.10;99.90;;;;;;5051356;28;19919;-92
2022/04/23 03:32:07;;;;;;;;;;;13.10;99.90;;;;;;5052841;28;20335;-90
2022/04/23 03:34:32;;;;;;;;;;;13.10;99.90;;;;;;5050774;28;20373;-92
2022/04/23 03:36:58;;;;;;;;;;;13.10;99.90;;;;;;5051596;28;19909;-91
2022/04/23 03:39:24;;;;;;;;;;;13.10;99.90;;;;;;5052482;28;20019;-92
2022/04/23 03:41:50;;;;;;;;;;;13.10;99.90;;;;;;5051830;28;19924;-91
2022/04/23 03:44:16;;;;;;;;;;;13.10;99.90;;;;;;5051346;28;19944;-92
2022/04/23 03:46:41;;;;;;;;;;;13.20;99.90;;;;;;5048700;28;19909;-92
2022/04/23 03:49:10;;;;;;;;;;;13.20;99.90;;;;;;5052248;28;19913;-92
2022/04/23 03:51:35;;;;;;;;;;;13.20;99.90;;;;;;5034612;28;19962;-91
2022/04/23 03:54:01;;;;;;;;;;;13.20;99.90;;;;;;5051155;28;20527;-92
2022/04/23 03:56:27;;;;;;;;;;;13.30;99.90;;;;;;5051142;28;19912;-91
2022/04/23 03:58:53;;;;;;;;;;;13.30;99.90;;;;;;5052332;28;19955;-92
2022/04/23 04:01:19;;;;;;;;;;;13.30;99.90;;;;;;5071603;28;19931;-92
2022/04/23 04:03:44;;;;;;;;;;;13.20;99.90;;;;;;5052797;28;19909;-90
2022/04/23 04:06:10;;;;;;;;;;;13.20;99.90;;;;;;5051445;28;19913;-92
2022/04/23 04:08:36;;;;;;;;;;;13.10;99.90;;;;;;5050941;28;20226;-92
2022/04/23 04:11:04;;;;;;;;;;;13.10;99.90;;;;;;5051195;28;19931;-92
2022/04/23 04:13:29;;;;;;;;;;;13.10;99.90;;;;;;5052494;28;19954;-92
2022/04/23 04:15:55;;;;;;;;;;;13.20;99.90;;;;;;5051035;28;19921;-91
2022/04/23 04:18:21;;;;;;;;;;;13.20;99.90;;;;;;5050944;28;19909;-91
2022/04/23 04:20:48;;;;;;;;;;;13.20;99.90;;;;;;5051212;28;19912;-91
2022/04/23 04:23:14;;;;;;;;;;;13.20;99.90;;;;;;5051031;28;19909;-92
2022/04/23 04:25:40;;;;;;;;;;;13.10;99.90;;;;;;5048064;28;19932;-92
2022/04/23 04:28:06;;;;;;;;;;;13.20;99.90;;;;;;5050931;28;19908;-92
2022/04/23 04:31:46;;;;;;;;;;;13.20;99.90;;;;;;5051243;28;19932;-91
2022/04/23 04:33:22;;;;;;;;;;;13.30;99.90;;;;;;5055782;28;19919;-91
2022/04/23 04:35:47;;;;;;;;;;;13.20;99.90;;;;;;5054747;28;19921;-92
2022/04/23 04:38:13;;;;;;;;;;;13.20;99.90;;;;;;5056144;28;20012;-91
2022/04/23 04:40:39;;;;;;;;;;;13.30;99.90;;;;;;5056072;28;19962;-91
2022/04/23 04:43:04;;;;;;;;;;;13.30;99.90;;;;;;5055728;28;19955;-92
2022/04/23 04:45:30;;;;;;;;;;;13.30;99.90;;;;;;5054924;28;20507;-92
2022/04/23 04:47:55;;;;;;;;;;;13.30;99.90;;;;;;5054044;28;20003;-90
2022/04/23 04:50:21;;;;;;;;;;;13.20;99.90;;;;;;5054550;28;20400;-88
2022/04/23 04:52:46;;;;;;;;;;;13.30;99.90;;;;;;5055419;28;20580;-88
2022/04/23 04:55:12;;;;;;;;;;;13.40;99.90;;;;;;5054856;28;19966;-87
2022/04/23 04:57:38;;;;;;;;;;;13.40;99.90;;;;;;5052931;28;20444;-88
2022/04/23 05:00:04;;;;;;;;;;;13.40;99.90;;;;;;5053711;28;20281;-88
2022/04/23 05:02:30;;;;;;;;;;;13.30;99.90;;;;;;5052897;28;20310;-88
2022/04/23 05:04:55;;;;;;;;;;;13.30;99.90;;;;;;5051379;28;19913;-88
2022/04/23 05:07:21;;;;;;;;;;;13.30;99.90;;;;;;5052505;28;20171;-88
2022/04/23 05:09:46;;;;;;;;;;;13.30;99.90;;;;;;5052585;28;19909;-87
2022/04/23 05:12:12;;;;;;;;;;;13.30;99.90;;;;;;5052528;28;19978;-88
2022/04/23 05:14:37;;;;;;;;;;;13.30;99.90;;;;;;5051253;28;19936;-88
2022/04/23 05:17:03;;;;;;;;;;;13.30;99.90;;;;;;5052797;28;20397;-88
2022/04/23 05:19:28;;;;;;;;;;;13.30;99.90;;;;;;5052641;28;19912;-88
2022/04/23 05:21:54;;;;;;;;;;;13.30;99.90;;;;;;5053187;28;19916;-88
2022/04/23 05:24:19;;;;;;;;;;;13.40;99.90;;;;;;5060207;28;20056;-88
2022/04/23 05:26:45;;;;;;;;;;;13.40;99.90;;;;;;5072714;28;19916;-88
2022/04/23 05:29:11;;;;;;;;;;;13.40;99.90;;;;;;5073070;28;19908;-88
2022/04/23 05:31:38;;;;;;;;;;;13.50;99.90;;;;;;5075264;28;20135;-88
2022/04/23 05:34:04;;;;;;;;;;;13.40;99.90;;;;;;5075517;28;20421;-88
2022/04/23 05:36:30;;;;;;;;;;;13.50;99.90;;;;;;5073898;28;20003;-87
2022/04/23 05:38:55;;;;;;;;;;;13.50;99.90;;;;;;5054796;28;19947;-88
2022/04/23 05:41:21;;;;;;;;;;;13.60;99.90;;;;;;5073282;28;20342;-89
2022/04/23 05:43:47;;;;;;;;;;;13.60;99.90;;;;;;5071622;28;19913;-88
2022/04/23 05:46:15;;;;;;;;;;;13.70;99.90;;;;;;5075588;28;19935;-87
2022/04/23 05:48:41;;;;;;;;;;;13.80;99.90;;;;;;5075104;28;19930;-88
2022/04/23 05:51:06;;;;;;;;;;;13.80;99.90;;;;;;5080022;28;20290;-87
2022/04/23 05:53:32;;;;;;;;;;;13.80;99.90;;;;;;5074278;28;20409;-88
2022/04/23 05:55:57;;;;;;;;;;;13.90;99.90;;;;;;5076870;28;19966;-87
2022/04/23 05:58:23;;;;;;;;;;;14.00;99.90;;;;;;5072449;28;19909;-87
2022/04/23 06:00:49;;;;;;;;;;;14.00;99.90;;;;;;5073482;28;19908;-88
2022/04/23 06:03:15;;;;;;;;;;;14.10;99.90;;;;;;5061352;28;19970;-88
2022/04/23 06:05:41;;;;;;;;;;;14.10;99.90;;;;;;5073874;28;20369;-88
2022/04/23 06:08:06;;;;;;;;;;;14.10;99.90;;;;;;5056567;28;19909;-89
2022/04/23 06:10:32;;;;;;;;;;;14.10;99.90;;;;;;5057752;28;19939;-89
2022/04/23 06:12:57;;;;;;;;;;;14.30;99.90;;;;;;5075928;28;19965;-88
2022/04/23 06:15:23;;;;;;;;;;;14.40;99.90;;;;;;5053947;28;19917;-89
2022/04/23 06:17:48;;;;;;;;;;;14.40;99.90;;;;;;5074144;28;19912;-88
2022/04/23 06:20:14;;;;;;;;;;;14.40;99.90;;;;;;5071905;28;20356;-88
2022/04/23 06:22:40;;;;;;;;;;;14.50;99.90;;;;;;5071745;28;19909;-89
2022/04/23 06:25:06;;;;;;;;;;;14.50;99.90;;;;;;5071677;28;19920;-93
2022/04/23 06:27:31;;;;;;;;;;;14.50;99.90;;;;;;5072617;28;19916;-89
2022/04/23 06:29:58;;;;;;;;;;;14.60;99.90;;;;;;5074739;28;19973;-88
2022/04/23 06:32:23;;;;;;;;;;;14.70;99.90;;;;;;5071182;28;19909;-87
2022/04/23 06:34:49;;;;;;;;;;;14.60;99.90;;;;;;5071586;28;19985;-88
2022/04/23 06:37:17;;;;;;;;;;;14.80;99.90;;;;;;5071399;28;19909;-88
2022/04/23 06:39:42;;;;;;;;;;;14.80;99.90;;;;;;5053473;28;19955;-87
2022/04/23 06:42:08;;;;;;;;;;;14.90;99.90;;;;;;5071391;28;20381;-88
2022/04/23 06:44:34;;;;;;;;;;;15.00;99.90;;;;;;5052888;28;19915;-88
2022/04/23 06:46:59;;;;;;;;;;;15.00;99.90;;;;;;5071458;28;20438;-88
2022/04/23 06:49:27;;;;;;;;;;;15.00;99.90;;;;;;5071218;28;19908;-88
2022/04/23 06:51:55;;;;;;;;;;;15.00;99.90;;;;;;5071270;28;19908;-88
2022/04/23 06:54:22;;;;;;;;;;;15.00;99.90;;;;;;5070204;28;19912;-88
2022/04/23 06:56:47;;;;;;;;;;;15.10;99.90;;;;;;5053203;28;19937;-88
2022/04/23 06:59:13;;;;;;;;;;;15.10;99.90;;;;;;5071114;28;19950;-87
2022/04/23 07:01:40;;;;;;;;;;;15.20;99.90;;;;;;5052888;28;19913;-88
2022/04/23 07:04:09;;;;;;;;;;;15.10;99.90;;;;;;5070803;28;19915;-88
2022/04/23 07:06:35;;;;;;;;;;;15.20;99.90;;;;;;5070789;28;19916;-87
2022/04/23 07:09:01;;;;;;;;;;;15.40;99.90;;;;;;5070820;28;20280;-87
2022/04/23 07:11:27;;;;;;;;;;;15.40;99.90;;;;;;5071503;28;19912;-89
2022/04/23 07:13:52;;;;;;;;;;;15.60;99.90;;;;;;5072543;28;19915;-89
2022/04/23 07:16:18;;;;;;;;;;;15.70;99.90;;;;;;5073744;28;20011;-90
2022/04/23 07:18:44;;;;;;;;;;;15.80;99.90;;;;;;5053400;28;19915;-90
2022/04/23 07:21:09;;;;;;;;;;;16.00;99.90;;;;;;5053604;28;19912;-91
2022/04/23 07:26:19;;;;;;;;;;;16.00;99.90;;;;;;5071984;28;20386;-91
2022/04/23 07:28:45;;;;;;;;;;;16.10;99.90;;;;;;5071519;28;19959;-89
2022/04/23 07:31:10;;;;;;;;;;;16.20;99.90;;;;;;5053641;28;20372;-91
2022/04/23 07:39:04;;;;;;;;;;;16.40;99.90;;;;;;5069626;28;19919;-93
2022/04/23 07:41:30;;;;;;;;;;;16.50;99.90;;;;;;5070031;28;19913;-91
2022/04/23 07:43:56;;;;;;;;;;;16.40;99.90;;;;;;5053020;28;20329;-91
2022/04/23 07:46:21;;;;;;;;;;;16.30;99.90;;;;;;5088963;28;19897;-92
2022/04/23 07:48:47;;;;;;;;;;;16.10;99.90;;;;;;5054621;28;20391;-92
2022/04/23 07:51:13;;;;;;;;;;;16.10;99.90;;;;;;5053437;28;19909;-91
2022/04/23 07:53:38;;;;;;;;;;;16.10;99.90;;;;;;5053429;28;19916;-91
2022/04/23 07:56:04;;;;;;;;;;;16.20;99.90;;;;;;5053077;28;20694;-91
2022/04/23 07:58:30;;;;;;;;;;;16.40;99.90;;;;;;5053110;28;19908;-91
2022/04/23 08:00:55;;;;;;;;;;;16.60;99.90;;;;;;5071132;28;20266;-91
2022/04/23 08:03:21;;;;;;;;;;;16.60;99.90;;;;;;5052217;28;20154;-89
2022/04/23 08:05:47;;;;;;;;;;;16.70;99.90;;;;;;5069868;28;19916;-88
2022/04/23 08:08:14;;;;;;;;;;;16.50;99.90;;;;;;5063488;28;20261;-87
2022/04/23 08:10:40;;;;;;;;;;;16.50;99.90;;;;;;5043224;28;19947;-88
2022/04/23 08:13:05;;;;;;;;;;;16.40;99.90;;;;;;5052244;28;19944;-88
2022/04/23 08:15:31;;;;;;;;;;;16.50;99.90;;;;;;5051513;28;19923;-88
2022/04/23 08:17:56;;;;;;;;;;;16.40;99.90;;;;;;5069479;28;19924;-88
2022/04/23 08:20:22;;;;;;;;;;;16.30;99.90;;;;;;5069836;28;20444;-88
2022/04/23 08:22:48;;;;;;;;;;;16.30;99.90;;;;;;5069781;28;20431;-88
2022/04/23 08:25:13;;;;;;;;;;;16.10;99.90;;;;;;5069729;28;19925;-88
2022/04/23 08:27:46;;;;;;;;;;;16.10;99.90;;;;;;5069870;28;20011;-87
2022/04/23 08:32:55;;;;;;;;;;;15.90;99.90;;;;;;5068920;28;19965;-87
2022/04/23 08:35:21;;;;;;;;;;;15.90;99.90;;;;;;5069755;28;19917;-87
2022/04/23 08:37:46;;;;;;;;;;;15.90;99.90;;;;;;5069297;28;19970;-88
2022/04/23 08:40:12;;;;;;;;;;;15.90;99.90;;;;;;5068458;28;20399;-89
2022/04/23 08:42:39;;;;;;;;;;;15.90;99.90;;;;;;5069785;28;20439;-88
2022/04/23 08:45:07;;;;;;;;;;;16.00;99.90;;;;;;5069411;28;20090;-87
2022/04/23 08:47:36;;;;;;;;;;;16.00;99.90;;;;;;5069492;28;19917;-87
2022/04/23 08:50:04;;;;;;;;;;;16.00;99.90;;;;;;5051466;28;19909;-88
2022/04/23 08:52:32;;;;;;;;;;;16.10;99.90;;;;;;5051937;28;20393;-88
2022/04/23 08:55:02;;;;;;;;;;;16.10;99.90;;;;;;5069841;28;19921;-88
2022/04/23 08:57:28;;;;;;;;;;;16.20;99.90;;;;;;5069392;28;19930;-88
2022/04/23 08:59:56;;;;;;;;;;;16.10;99.90;;;;;;5069449;28;19908;-89
2022/04/23 09:02:26;;;;;;;;;;;16.30;99.90;;;;;;5051801;28;20882;-88
2022/04/23 09:04:54;;;;;;;;;;;16.40;99.90;;;;;;5069730;28;19908;-88
2022/04/23 09:07:20;;;;;;;;;;;16.40;99.90;;;;;;5069677;28;19987;-88
2022/04/23 09:09:53;;;;;;;;;;;16.30;99.90;;;;;;5069518;28;19909;-88
2022/04/23 09:12:19;;;;;;;;;;;16.30;99.90;;;;;;5069225;28;20327;-87
2022/04/23 09:14:45;;;;;;;;;;;16.20;99.90;;;;;;5051312;28;19965;-88
2022/04/23 09:25:35;;;;;;;;;;;16.40;99.90;;;;;;5072942;28;19928;-88
2022/04/23 09:28:15;;;;;;;;;;;16.30;99.90;;;;;;5072792;28;19909;-88
2022/04/23 09:30:41;;;;;;;;;;;16.20;99.90;;;;;;5072754;28;20292;-88
2022/04/23 09:33:07;;;;;;;;;;;16.20;99.90;;;;;;5072412;28;19919;-88
2022/04/23 09:35:32;;;;;;;;;;;16.30;99.90;;;;;;5072890;28;20361;-88
2022/04/23 09:38:14;;;;;;;;;;;16.40;99.90;;;;;;5058787;28;19959;-89
2022/04/23 09:40:39;;;;;;;;;;;16.50;99.90;;;;;;5073044;28;19916;-87
2022/04/23 09:43:06;;;;;;;;;;;16.50;99.90;;;;;;5072632;28;19908;-88
2022/04/23 09:45:32;;;;;;;;;;;16.60;99.90;;;;;;5072584;28;20326;-88
2022/04/23 09:48:01;;;;;;;;;;;16.80;99.90;;;;;;5071922;28;19909;-88
2022/04/23 09:50:34;;;;;;;;;;;16.90;99.90;;;;;;5072809;28;19919;-88
2022/04/23 09:53:07;;;;;;;;;;;16.70;99.90;;;;;;5072503;28;20399;-88
2022/04/23 09:55:33;;;;;;;;;;;16.70;99.90;;;;;;5054318;28;19940;-89
2022/04/23 09:57:59;;;;;;;;;;;16.60;99.90;;;;;;5072839;28;19955;-88
2022/04/23 10:00:24;;;;;;;;;;;16.50;99.90;;;;;;5054451;28;19952;-88
2022/04/23 10:02:54;;;;;;;;;;;16.50;99.90;;;;;;5071884;28;19908;-89
2022/04/23 10:05:20;;;;;;;;;;;16.40;99.90;;;;;;5072289;28;19909;-88
2022/04/23 10:07:47;;;;;;;;;;;16.10;99.90;;;;;;5072098;28;19915;-88
2022/04/23 10:10:13;;;;;;;;;;;16.10;99.90;;;;;;5054132;28;20312;-88
2022/04/23 10:12:41;;;;;;;;;;;16.00;99.90;;;;;;5072381;28;19915;-88
2022/04/23 10:15:07;;;;;;;;;;;16.00;99.90;;;;;;5071930;28;19917;-88
2022/04/23 10:17:33;;;;;;;;;;;16.00;99.90;;;;;;5072702;28;19962;-88
2022/04/23 10:19:59;;;;;;;;;;;15.80;99.90;;;;;;5071843;28;20384;-88
2022/04/23 10:22:31;;;;;;;;;;;15.70;99.90;;;;;;5065610;28;19925;-88
2022/04/23 10:25:08;;;;;;;;;;;15.80;99.90;;;;;;5050208;28;19920;-88
2022/04/23 10:27:34;;;;;;;;;;;15.80;99.90;;;;;;5050384;28;19909;-88
2022/04/23 10:30:04;;;;;;;;;;;15.50;99.90;;;;;;5051787;28;19908;-88
2022/04/23 10:32:42;;;;;;;;;;;15.30;99.90;;;;;;5050188;28;20296;-88
2022/04/23 10:35:19;;;;;;;;;;;15.20;99.90;;;;;;5051672;28;19924;-88
2022/04/23 10:37:48;;;;;;;;;;;15.10;99.90;;;;;;5051839;28;19912;-88
2022/04/23 10:40:18;;;;;;;;;;;15.10;99.90;;;;;;5051896;28;19916;-89
2022/04/23 10:43:02;;;;;;;;;;;15.20;99.90;;;;;;5051760;28;19916;-88
2022/04/23 10:45:34;;;;;;;;;;;15.30;99.90;;;;;;5051857;28;20419;-88
2022/04/23 10:48:18;;;;;;;;;;;15.30;99.90;;;;;;5052217;28;20143;-88
2022/04/23 10:50:59;;;;;;;;;;;15.30;99.90;;;;;;5052019;28;19909;-89
2022/04/23 10:53:47;;;;;;;;;;;15.20;99.90;;;;;;5051473;28;19963;-88
2022/04/23 10:56:15;;;;;;;;;;;15.10;99.90;;;;;;5051610;28;19927;-87
2022/04/23 10:58:41;;;;;;;;;;;15.10;99.90;;;;;;5052280;28;20357;-88
2022/04/23 11:01:23;;;;;;;;;;;15.00;99.90;;;;;;5051966;28;20160;-88
2022/04/23 11:03:55;;;;;;;;;;;15.00;99.90;;;;;;5046869;28;19970;-89
2022/04/23 11:12:36;;;;;;;;;;;14.90;99.90;;;;;;5052141;28;19920;-88
2022/04/23 11:15:11;;;;;;;;;;;15.00;99.90;;;;;;5047565;28;20016;-88
2022/04/23 11:17:37;;;;;;;;;;;14.90;99.90;;;;;;5052113;28;19909;-88
2022/04/23 11:20:03;;;;;;;;;;;15.00;99.90;;;;;;5049915;28;19909;-88
2022/04/23 11:22:28;;;;;;;;;;;15.00;99.90;;;;;;5051294;28;19954;-88
2022/04/23 11:24:54;;;;;;;;;;;15.00;99.90;;;;;;5063282;28;19920;-88
2022/04/23 11:27:23;;;;;;;;;;;15.00;99.90;;;;;;5071303;28;20377;-88
2022/04/23 11:29:52;;;;;;;;;;;15.10;99.90;;;;;;5074788;28;19908;-90
2022/04/23 11:32:32;;;;;;;;;;;15.20;99.90;;;;;;5053578;28;20349;-88
2022/04/23 11:35:01;;;;;;;;;;;15.20;99.90;;;;;;5071380;28;19932;-88
2022/04/23 11:37:47;;;;;;;;;;;15.30;99.90;;;;;;5052979;28;19909;-88
2022/04/23 11:40:14;;;;;;;;;;;15.30;99.90;;;;;;5069580;28;19952;-88
2022/04/23 11:42:44;;;;;;;;;;;15.50;99.90;;;;;;5070874;28;19909;-89
2022/04/23 11:45:10;;;;;;;;;;;15.70;99.90;;;;;;5070921;28;19916;-88
2022/04/23 11:47:36;;;;;;;;;;;15.90;99.90;;;;;;5052456;28;20288;-87
2022/04/23 11:50:12;;;;;;;;;;;16.00;99.90;;;;;;5070814;28;19909;-88
2022/04/23 11:52:38;;;;;;;;;;;16.20;99.90;;;;;;5052779;28;20052;-88
2022/04/23 11:55:04;;;;;;;;;;;16.30;99.90;;;;;;5070687;28;20066;-88
2022/04/23 11:57:32;;;;;;;;;;;16.20;99.90;;;;;;5070571;28;20003;-88
2022/04/23 11:59:59;;;;;;;;;;;16.00;99.90;;;;;;5070623;28;19913;-89
2022/04/23 12:02:25;;;;;;;;;;;16.10;99.90;;;;;;5070500;28;19995;-89
2022/04/23 12:04:57;;;;;;;;;;;16.10;99.90;;;;;;5052441;28;20442;-88
2022/04/23 12:07:23;;;;;;;;;;;16.30;99.90;;;;;;5070862;28;19909;-89
2022/04/23 12:09:53;;;;;;;;;;;16.40;99.90;;;;;;5052730;28;20394;-88
2022/04/23 12:12:20;;;;;;;;;;;16.50;99.90;;;;;;5070712;28;19908;-88
2022/04/23 12:14:50;;;;;;;;;;;16.30;99.90;;;;;;5052264;28;19917;-89
2022/04/23 12:17:22;;;;;;;;;;;16.30;99.90;;;;;;5070493;28;20019;-89
2022/04/23 12:19:48;;;;;;;;;;;16.20;99.90;;;;;;5070789;28;19915;-89
2022/04/23 12:22:27;;;;;;;;;;;16.20;99.90;;;;;;5070653;28;20011;-89
2022/04/23 12:25:07;;;;;;;;;;;16.20;99.90;;;;;;5070832;28;19990;-88
2022/04/23 12:27:50;;;;;;;;;;;16.20;99.90;;;;;;5070819;28;19908;-88
2022/04/23 12:41:26;;;;;;;;;;;15.40;99.90;;;;;;5031769;28;19908;-88
2022/04/23 12:43:52;;;;;;;;;;;15.30;99.90;;;;;;5051922;28;19912;-88
2022/04/23 12:46:17;;;;;;;;;;;15.40;99.90;;;;;;5070423;28;19909;-88
2022/04/23 12:48:55;;;;;;;;;;;15.30;99.90;;;;;;5051205;28;19958;-88
2022/04/23 12:51:21;;;;;;;;;;;15.40;99.90;;;;;;5069914;28;19908;-88
2022/04/23 12:53:47;;;;;;;;;;;15.30;99.90;;;;;;5055525;28;19909;-88
2022/04/23 12:56:12;;;;;;;;;;;15.30;99.90;;;;;;5055653;28;20010;-88
2022/04/23 12:58:38;;;;;;;;;;;15.30;99.90;;;;;;5049341;28;20400;-88
2022/04/23 13:01:05;;;;;;;;;;;15.40;99.90;;;;;;5073400;28;19908;-88
2022/04/23 13:03:35;;;;;;;;;;;15.60;99.90;;;;;;5073004;28;19920;-88
2022/04/23 13:06:02;;;;;;;;;;;15.60;99.90;;;;;;5055473;28;19909;-88
2022/04/23 13:11:25;;;;;;;;;;;15.70;99.90;;;;;;5073952;28;19915;-88
2022/04/23 13:13:55;;;;;;;;;;;15.60;99.90;;;;;;5073240;28;19912;-88
2022/04/23 13:16:25;;;;;;;;;;;15.90;99.90;;;;;;5073595;28;20462;-88
2022/04/23 13:18:51;;;;;;;;;;;15.90;99.90;;;;;;5072805;28;20402;-88
2022/04/23 13:21:17;;;;;;;;;;;15.90;99.90;;;;;;5077613;28;19995;-88
2022/04/23 13:23:42;;;;;;;;;;;16.10;99.90;;;;;;5073851;28;19950;-88
2022/04/23 13:26:08;;;;;;;;;;;16.00;99.90;;;;;;5073362;28;19919;-88
2022/04/23 13:28:34;;;;;;;;;;;16.00;99.90;;;;;;5072882;28;19908;-88
2022/04/23 13:30:59;;;;;;;;;;;15.90;99.90;;;;;;5072814;28;19916;-88
2022/04/23 13:33:25;;;;;;;;;;;15.80;99.90;;;;;;5054612;28;19908;-88
2022/04/23 13:35:50;;;;;;;;;;;15.80;99.90;;;;;;5073190;28;19916;-88
2022/04/23 13:38:16;;;;;;;;;;;15.70;99.90;;;;;;5054959;28;20281;-89
2022/04/23 13:40:44;;;;;;;;;;;15.40;99.90;;;;;;5073027;28;19909;-88
2022/04/23 13:43:09;;;;;;;;;;;14.90;99.90;;;;;;5073032;28;19987;-85
2022/04/23 13:45:35;;;;;;;;;;;14.70;99.90;;;;;;5061759;28;20003;-85
2022/04/23 13:48:03;;;;;;;;;;;14.50;99.90;;;;;;5066599;28;19970;-85
2022/04/23 13:50:30;;;;;;;;;;;14.60;99.90;;;;;;5072948;28;19909;-86
2022/04/23 13:52:55;;;;;;;;;;;14.70;99.90;;;;;;5074223;28;20475;-86
2022/04/23 13:55:21;;;;;;;;;;;14.60;99.90;;;;;;5065925;28;20003;-86
2022/04/23 13:57:46;;;;;;;;;;;14.50;99.90;;;;;;5077441;28;19940;-86
2022/04/23 14:00:12;;;;;;;;;;;14.60;99.90;;;;;;5072361;28;20003;-85
2022/04/23 14:10:50;;;;;;;;;;;14.90;99.90;;;;;;5072071;28;20068;-86
2022/04/23 14:13:16;;;;;;;;;;;15.10;99.90;;;;;;5072812;28;19927;-86
2022/04/23 14:15:41;;;;;;;;;;;15.30;99.90;;;;;;5072073;28;20335;-87
2022/04/23 14:18:07;;;;;;;;;;;15.40;99.90;;;;;;5072159;28;19912;-86
2022/04/23 14:20:33;;;;;;;;;;;15.50;99.90;;;;;;5071778;28;19909;-86
2022/04/23 14:23:01;;;;;;;;;;;15.80;99.90;;;;;;5071895;28;19954;-87
2022/04/23 14:25:27;;;;;;;;;;;16.40;99.90;;;;;;5071731;28;19920;-86
2022/04/23 14:27:52;;;;;;;;;;;17.20;99.90;;;;;;5074264;28;20392;-86
2022/04/23 14:30:18;;;;;;;;;;;17.70;99.90;;;;;;5071795;28;19909;-87
2022/04/23 14:32:44;;;;;;;;;;;18.20;99.90;;;;;;5073502;28;19912;-86
2022/04/23 14:35:09;;;;;;;;;;;18.60;99.90;;;;;;5053372;28;19920;-87
2022/04/23 14:37:35;;;;;;;;;;;18.00;99.90;;;;;;5073146;28;19997;-87
2022/04/23 14:40:00;;;;;;;;;;;17.60;99.90;;;;;;5055803;28;19908;-86
2022/04/23 14:42:26;;;;;;;;;;;17.00;99.90;;;;;;5073090;28;19975;-86
2022/04/23 14:44:51;;;;;;;;;;;16.60;99.90;;;;;;5074261;28;20402;-86
2022/04/23 14:47:17;;;;;;;;;;;16.50;99.90;;;;;;5071047;28;19938;-86
2022/04/23 14:49:42;;;;;;;;;;;16.70;99.90;;;;;;5071271;28;20281;-86
2022/04/23 14:54:52;;;;;;;;;;;16.90;99.90;;;;;;5071347;28;20054;-92
2022/04/23 14:57:17;;;;;;;;;;;16.80;99.90;;;;;;5054341;28;19974;-92
2022/04/23 14:59:43;;;;;;;;;;;16.80;99.90;;;;;;5054354;28;20439;-92
2022/04/23 15:02:09;;;;;;;;;;;17.10;99.90;;;;;;5054409;28;19995;-93
2022/04/23 15:04:34;;;;;;;;;;;17.60;99.90;;;;;;5054740;28;20327;-93
2022/04/23 15:07:00;;;;;;;;;;;17.90;99.90;;;;;;5053897;28;20002;-88